Time;durP1;ratioP1;P1;durP2;ratioP2;P2;SDS_P1;SDS_P2;PMS_P1;PMS_P2;Temp;Humidity;BMP_temperature;BMP_pressure;BME280_temperature;BME280_humidity;BME280_pressure;Samples;Min_cycle;Max_cycle;Signal;HPM_P1;HPM_P2
2023/10/08 00:01:41;;;;;;;0.90;0.50;;;;;;;18.35;36.71;101445.22;5053959;28;20414;-81
2023/10/08 00:04:08;;;;;;;0.90;0.60;;;;;;;18.26;36.84;101436.53;5052313;28;20408;-81
2023/10/08 00:06:35;;;;;;;1.13;0.52;;;;;;;18.22;37.03;101437.13;5035072;28;20471;-81
2023/10/08 00:09:00;;;;;;;1.13;0.93;;;;;;;18.10;37.16;101434.22;5032938;28;20832;-84
2023/10/08 00:11:31;;;;;;;1.30;0.60;;;;;;;17.98;37.47;101428.59;5033102;28;20462;-85
2023/10/08 00:13:57;;;;;;;1.20;0.80;;;;;;;18.04;37.30;101430.50;5015239;28;20465;-86
2023/10/08 00:16:27;;;;;;;0.70;0.40;;;;;;;18.12;37.33;101422.25;5031161;28;20403;-85
2023/10/08 00:18:58;;;;;;;0.97;0.60;;;;;;;18.12;37.20;101408.81;5032759;28;20465;-85
2023/10/08 00:21:26;;;;;;;1.10;0.55;;;;;;;18.21;37.11;101414.84;5033718;28;20400;-82
2023/10/08 00:23:52;;;;;;;1.10;0.57;;;;;;;18.22;37.29;101412.97;5034634;28;20907;-84
2023/10/08 00:26:34;;;;;;;0.90;0.50;;;;;;;18.14;37.35;101405.94;5029765;28;20409;-84
2023/10/08 00:29:24;;;;;;;0.90;0.50;;;;;;;18.14;37.39;101414.00;5052292;28;20405;-83
2023/10/08 00:31:50;;;;;;;0.77;0.40;;;;;;;18.20;37.06;101405.13;5033234;28;20381;-84
2023/10/08 00:34:19;;;;;;;0.40;0.20;;;;;;;18.14;37.40;101396.03;5034447;28;20388;-83
2023/10/08 00:36:47;;;;;;;1.13;0.60;;;;;;;18.08;37.44;101401.41;5051068;28;20420;-83
2023/10/08 00:39:26;;;;;;;2.53;0.60;;;;;;;18.07;37.49;101405.09;5017059;28;20474;-84
2023/10/08 00:41:58;;;;;;;0.87;0.40;;;;;;;17.90;37.83;101402.78;5052074;28;20397;-82
2023/10/08 00:44:29;;;;;;;1.38;0.85;;;;;;;17.99;37.39;101395.41;5050386;28;20470;-84
2023/10/08 00:47:06;;;;;;;0.85;0.50;;;;;;;18.06;37.52;101404.28;5051805;28;21187;-83
2023/10/08 00:55:06;;;;;;;1.05;0.65;;;;;;;18.01;37.58;101393.31;5051735;28;20427;-81
2023/10/08 00:57:36;;;;;;;0.83;0.40;;;;;;;18.07;37.52;101395.19;5050245;28;20404;-83
2023/10/08 01:00:17;;;;;;;0.80;0.47;;;;;;;18.09;37.51;101385.06;5052669;28;20470;-83
2023/10/08 01:02:54;;;;;;;1.38;1.10;;;;;;;18.06;37.41;101388.19;5052360;28;20369;-82
2023/10/08 01:05:41;;;;;;;0.82;0.43;;;;;;;18.06;37.35;101395.38;5032269;28;20487;-82
2023/10/08 01:08:11;;;;;;;1.05;0.52;;;;;;;18.05;37.30;101391.88;5050860;28;20429;-83
2023/10/08 01:10:38;;;;;;;0.60;0.40;;;;;;;17.95;37.41;101388.75;5049626;28;20405;-81
2023/10/08 01:13:16;;;;;;;0.73;0.43;;;;;;;18.02;37.31;101394.16;5033727;28;20425;-82
2023/10/08 01:15:55;;;;;;;0.68;0.40;;;;;;;18.02;37.21;101389.59;5050433;28;20396;-82
2023/10/08 01:21:18;;;;;;;0.90;0.68;;;;;;;17.95;37.33;101386.06;5051155;28;20459;-82
2023/10/08 01:23:50;;;;;;;0.60;0.30;;;;;;;18.03;37.02;101396.63;5050288;28;20401;-81
2023/10/08 01:26:39;;;;;;;0.73;0.40;;;;;;;18.05;37.22;101391.88;5045120;28;20449;-82
2023/10/08 01:29:09;;;;;;;0.75;0.40;;;;;;;18.17;37.12;101384.09;5051052;28;20412;-81
2023/10/08 01:31:41;;;;;;;0.80;0.50;;;;;;;18.15;36.89;101386.97;5048493;28;20400;-81
2023/10/08 01:34:07;;;;;;;0.82;0.57;;;;;;;18.10;37.09;101385.91;5051490;28;20429;-82
2023/10/08 01:36:35;;;;;;;1.40;0.70;;;;;;;18.09;37.08;101373.53;5049463;28;20431;-81
2023/10/08 01:39:02;;;;;;;0.75;0.45;;;;;;;18.13;36.99;101377.44;5050409;28;20384;-82
2023/10/08 01:41:30;;;;;;;2.15;0.88;;;;;;;18.11;37.07;101372.31;5032285;28;20401;-86
2023/10/08 01:44:14;;;;;;;0.95;0.52;;;;;;;18.11;37.12;101377.69;5050956;28;20874;-86
2023/10/08 01:46:43;;;;;;;0.88;0.47;;;;;;;18.01;37.31;101371.88;5033490;28;20685;-83
2023/10/08 01:49:14;;;;;;;0.73;0.38;;;;;;;17.94;37.10;101381.75;5035982;28;20388;-81
2023/10/08 01:51:47;;;;;;;1.33;0.93;;;;;;;17.96;37.41;101374.31;5051119;28;20396;-82
2023/10/08 01:54:14;;;;;;;0.80;0.60;;;;;;;17.90;37.37;101373.28;5049328;28;20565;-81
2023/10/08 01:56:41;;;;;;;0.88;0.50;;;;;;;17.85;37.59;101372.22;5049006;28;20405;-81
2023/10/08 01:59:14;;;;;;;1.03;0.57;;;;;;;17.73;37.83;101363.91;5049850;28;20400;-80
2023/10/08 02:01:45;;;;;;;1.02;0.70;;;;;;;17.65;37.95;101369.47;5008256;28;20918;-81
2023/10/08 02:04:16;;;;;;;1.05;0.80;;;;;;;17.56;38.36;101371.50;4991891;28;20403;-82
2023/10/08 02:06:42;;;;;;;0.82;0.35;;;;;;;17.47;38.47;101360.13;5008414;28;20509;-81
2023/10/08 02:09:13;;;;;;;0.90;0.60;;;;;;;17.45;38.71;101372.88;5007400;28;20388;-81
2023/10/08 02:11:53;;;;;;;0.80;0.52;;;;;;;17.36;38.88;101364.19;5008173;28;20399;-81
2023/10/08 02:14:21;;;;;;;1.05;0.80;;;;;;;17.41;38.87;101378.84;4999115;28;20491;-82
2023/10/08 02:16:48;;;;;;;1.15;0.50;;;;;;;17.37;38.92;101368.50;5008068;28;20404;-81
2023/10/08 02:19:26;;;;;;;1.00;0.50;;;;;;;17.35;39.02;101367.06;5008028;28;20407;-80
2023/10/08 02:22:04;;;;;;;1.20;0.60;;;;;;;17.36;38.79;101361.50;5008267;28;21295;-80
2023/10/08 02:24:31;;;;;;;4.57;1.00;;;;;;;17.35;38.94;101359.84;5008501;28;20430;-79
2023/10/08 02:26:57;;;;;;;0.80;0.70;;;;;;;17.30;38.97;101364.16;5008002;28;20479;-80
2023/10/08 02:29:26;;;;;;;0.93;0.40;;;;;;;17.33;38.93;101361.06;5008041;28;20403;-79
2023/10/08 02:31:55;;;;;;;1.30;0.90;;;;;;;17.32;39.04;101349.53;5015307;28;20385;-80
2023/10/08 02:34:22;;;;;;;1.15;0.50;;;;;;;17.36;38.95;101350.78;5031756;28;20891;-80
2023/10/08 02:36:50;;;;;;;1.40;0.50;;;;;;;17.41;39.03;101355.53;5049648;28;20888;-80
2023/10/08 02:39:23;;;;;;;1.10;0.55;;;;;;;17.48;38.87;101351.03;5049893;28;20760;-80
2023/10/08 02:41:49;;;;;;;0.90;0.50;;;;;;;17.53;38.70;101348.56;5050567;28;20405;-78
2023/10/08 02:44:19;;;;;;;2.72;0.70;;;;;;;17.53;38.67;101345.06;5050035;28;20395;-76
2023/10/08 02:46:48;;;;;;;0.60;0.30;;;;;;;17.47;38.63;101346.72;5048778;28;20594;-78
2023/10/08 02:49:25;;;;;;;0.77;0.40;;;;;;;17.41;38.91;101350.16;5049649;28;20403;-77
2023/10/08 02:51:54;;;;;;;1.40;0.70;;;;;;;17.48;38.96;101352.88;5049700;28;20471;-80
2023/10/08 02:54:32;;;;;;;1.20;0.60;;;;;;;17.51;38.72;101347.13;5049856;28;20399;-80
2023/10/08 02:57:02;;;;;;;0.57;0.32;;;;;;;17.50;38.72;101346.31;5048072;28;20392;-80
2023/10/08 02:59:38;;;;;;;1.08;0.50;;;;;;;17.43;39.09;101341.94;5049591;28;20419;-81
2023/10/08 03:02:04;;;;;;;2.00;0.93;;;;;;;17.30;39.23;101330.13;5049713;28;20907;-82
2023/10/08 03:04:30;;;;;;;1.33;0.80;;;;;;;17.32;39.40;101335.28;5049726;28;20478;-81
2023/10/08 03:06:58;;;;;;;1.20;0.65;;;;;;;17.32;39.38;101341.50;5050072;28;20381;-81
2023/10/08 03:09:32;;;;;;;0.85;0.50;;;;;;;17.38;39.27;101338.00;5048668;28;20388;-82
2023/10/08 03:12:07;;;;;;;1.33;0.75;;;;;;;17.35;39.31;101333.03;5032051;28;20384;-82
2023/10/08 03:14:49;;;;;;;1.10;0.57;;;;;;;17.37;39.33;101327.47;5049950;28;20490;-82
2023/10/08 03:17:19;;;;;;;1.52;0.90;;;;;;;17.41;39.09;101323.38;5035055;28;20929;-82
2023/10/08 03:19:46;;;;;;;0.57;0.33;;;;;;;17.41;39.32;101320.69;5032666;28;20412;-82
2023/10/08 03:22:19;;;;;;;0.98;0.45;;;;;;;17.43;39.33;101328.53;5050323;28;20436;-83
2023/10/08 03:24:48;;;;;;;0.60;0.38;;;;;;;17.38;39.32;101324.63;5051187;28;20748;-82
2023/10/08 03:27:20;;;;;;;1.13;0.60;;;;;;;17.37;39.51;101320.25;5034242;28;20436;-82
2023/10/08 03:29:54;;;;;;;1.00;0.73;;;;;;;17.37;39.37;101316.75;5048127;28;20407;-81
2023/10/08 03:32:26;;;;;;;0.75;0.35;;;;;;;17.34;39.45;101317.16;5049934;28;20473;-81
2023/10/08 03:34:54;;;;;;;1.37;0.87;;;;;;;17.38;39.37;101319.25;5049610;28;20414;-81
2023/10/08 03:37:29;;;;;;;0.93;0.60;;;;;;;17.37;39.27;101324.81;5048466;28;21024;-81
2023/10/08 03:40:07;;;;;;;0.70;0.40;;;;;;;17.34;39.46;101317.16;5048280;28;20495;-81
2023/10/08 03:42:34;;;;;;;0.98;0.60;;;;;;;17.40;39.35;101319.06;5049522;28;20388;-81
2023/10/08 03:45:10;;;;;;;1.38;0.60;;;;;;;17.48;39.13;101320.72;5049115;28;20381;-81
2023/10/08 03:47:41;;;;;;;0.70;0.47;;;;;;;17.47;39.39;101311.03;5050251;28;20456;-81
2023/10/08 03:50:17;;;;;;;0.77;0.45;;;;;;;17.45;39.33;101305.03;5031762;28;20468;-80
2023/10/08 03:52:44;;;;;;;0.55;0.43;;;;;;;17.44;39.56;101304.22;5049664;28;20388;-83
2023/10/08 03:55:21;;;;;;;0.57;0.38;;;;;;;17.50;39.19;101294.53;5030967;28;20416;-81
2023/10/08 03:57:56;;;;;;;1.67;0.70;;;;;;;17.54;39.31;101285.91;5046879;28;20416;-81
2023/10/08 04:00:31;;;;;;;0.75;0.40;;;;;;;17.58;39.10;101289.81;5047688;28;20469;-80
2023/10/08 04:03:01;;;;;;;0.95;0.70;;;;;;;17.63;38.99;101283.03;5049597;28;20388;-81
2023/10/08 04:05:32;;;;;;;1.10;0.50;;;;;;;17.61;39.16;101283.25;5049116;28;20396;-81
2023/10/08 04:08:17;;;;;;;1.90;0.70;;;;;;;17.67;39.06;101285.09;5035204;28;20406;-82
2023/10/08 04:13:09;;;;;;;0.90;0.47;;;;;;;17.89;38.84;101268.88;5029291;28;20461;-81
2023/10/08 04:15:41;;;;;;;0.90;0.50;;;;;;;17.99;38.65;101271.16;5027767;28;20406;-81
2023/10/08 04:18:10;;;;;;;0.88;0.40;;;;;;;18.00;38.49;101268.25;5028622;28;20885;-81
2023/10/08 04:23:13;;;;;;;1.02;0.50;;;;;;;18.00;38.43;101254.03;4995552;28;20417;-81
2023/10/08 04:25:41;;;;;;;0.90;0.47;;;;;;;18.07;38.62;101252.19;5029055;28;20512;-80
2023/10/08 04:28:13;;;;;;;0.77;0.40;;;;;;;18.08;38.57;101264.56;5024032;28;20488;-80
2023/10/08 04:30:43;;;;;;;0.82;0.35;;;;;;;18.09;38.56;101255.47;5009404;28;20384;-80
2023/10/08 04:33:14;;;;;;;0.90;0.40;;;;;;;18.13;38.61;101256.69;5024448;28;20400;-78
2023/10/08 04:36:01;;;;;;;1.05;0.85;;;;;;;18.13;38.46;101262.91;5008029;28;20818;-78
2023/10/08 04:38:39;;;;;;;0.70;0.30;;;;;;;18.15;38.30;101268.09;5009936;28;20442;-77
2023/10/08 04:41:09;;;;;;;0.77;0.50;;;;;;;18.22;38.14;101258.16;5028193;28;20463;-77
2023/10/08 04:43:42;;;;;;;1.40;1.10;;;;;;;18.27;38.20;101258.34;5011355;28;20392;-79
2023/10/08 04:48:55;;;;;;;0.68;0.30;;;;;;;18.37;37.86;101249.06;5012704;28;20438;-80
2023/10/08 04:51:22;;;;;;;1.33;0.88;;;;;;;18.48;37.44;101253.81;5027867;28;20799;-80
2023/10/08 04:53:49;;;;;;;1.15;0.45;;;;;;;18.56;37.42;101250.06;5012367;28;20418;-79
2023/10/08 04:56:18;;;;;;;1.13;0.68;;;;;;;18.52;36.97;101239.72;5027795;28;20419;-80
2023/10/08 04:58:48;;;;;;;1.05;0.52;;;;;;;18.68;36.74;101243.00;5011525;28;20446;-80
2023/10/08 05:01:17;;;;;;;1.10;1.00;;;;;;;18.78;36.71;101256.84;5012528;28;20403;-79
2023/10/08 05:17:34;;;;;;;1.98;0.63;;;;;;;19.39;35.37;101257.41;5012938;28;20414;-80
2023/10/08 05:22:44;;;;;;;1.83;0.90;;;;;;;19.54;35.10;101249.09;5012342;28;20562;-78
2023/10/08 05:33:12;;;;;;;1.58;0.80;;;;;;;19.77;33.84;101251.22;5032322;28;20842;-79
2023/10/08 05:38:21;;;;;;;1.10;0.82;;;;;;;19.93;33.56;101255.25;5025704;28;20474;-79
2023/10/08 05:46:46;;;;;;;0.77;0.60;;;;;;;20.19;32.95;101251.53;5051016;28;20955;-82
2023/10/08 05:52:24;;;;;;;1.20;0.73;;;;;;;20.44;32.74;101248.81;4989159;28;20394;-83
2023/10/08 05:55:15;;;;;;;1.35;0.90;;;;;;;20.49;32.73;101242.72;4985892;28;20398;-83
2023/10/08 05:57:46;;;;;;;0.82;0.43;;;;;;;20.64;32.27;101250.50;4956109;28;20425;-85
2023/10/08 06:05:22;;;;;;;0.75;0.50;;;;;;;20.95;31.62;101242.25;5051176;28;20451;-83
2023/10/08 06:10:42;;;;;;;0.90;0.60;;;;;;;21.19;31.40;101237.81;4987802;28;20926;-82
2023/10/08 06:13:44;;;;;;;0.80;0.60;;;;;;;21.29;31.71;101234.56;5007712;28;20392;-81
2023/10/08 06:16:30;;;;;;;1.17;0.60;;;;;;;21.30;31.05;101230.81;5007971;28;20390;-86
2023/10/08 06:18:57;;;;;;;0.77;0.52;;;;;;;21.44;31.05;101239.53;5007306;28;20394;-83
2023/10/08 06:21:26;;;;;;;0.80;0.50;;;;;;;21.56;31.15;101248.50;5009917;28;20423;-86
2023/10/08 06:23:58;;;;;;;0.80;0.60;;;;;;;21.61;30.98;101253.22;5008397;28;20404;-83
2023/10/08 06:26:25;;;;;;;0.80;0.35;;;;;;;21.71;30.88;101256.16;5008277;28;20391;-83
2023/10/08 06:29:18;;;;;;;0.50;0.40;;;;;;;21.76;30.04;101260.88;5007966;28;20432;-83
2023/10/08 06:31:55;;;;;;;1.10;0.60;;;;;;;21.76;30.15;101255.47;5018278;28;20431;-83
2023/10/08 06:34:40;;;;;;;0.57;0.40;;;;;;;21.81;30.41;101255.63;5049202;28;20879;-82
2023/10/08 06:37:15;;;;;;;0.65;0.40;;;;;;;21.86;29.73;101257.59;5001001;28;20494;-84
2023/10/08 06:39:50;;;;;;;0.60;0.40;;;;;;;22.03;29.64;101261.28;4985149;28;20499;-83
2023/10/08 06:42:21;;;;;;;0.90;0.70;;;;;;;22.05;29.39;101261.88;5047792;28;21019;-83
2023/10/08 06:44:58;;;;;;;0.52;0.38;;;;;;;22.09;29.26;101263.06;5049382;28;20753;-84
2023/10/08 06:47:37;;;;;;;1.15;0.93;;;;;;;22.14;29.40;101254.25;5045430;28;20431;-80
2023/10/08 06:50:04;;;;;;;1.20;0.67;;;;;;;22.19;29.27;101262.47;5050597;28;20396;-79
2023/10/08 06:55:11;;;;;;;2.00;0.98;;;;;;;22.36;28.50;101267.19;1424903;26;20440;-80
2023/10/08 06:57:42;;;;;;;1.08;0.80;;;;;;;22.45;28.43;101260.38;5046448;28;20564;-81
2023/10/08 07:00:12;;;;;;;1.23;1.10;;;;;;;22.58;28.55;101259.31;5045297;28;20416;-80
2023/10/08 07:02:39;;;;;;;0.93;0.75;;;;;;;22.61;27.96;101251.56;5053456;28;20837;-82
2023/10/08 07:05:09;;;;;;;1.60;1.00;;;;;;;22.54;27.72;101256.25;5041737;28;20821;-81
2023/10/08 07:07:39;;;;;;;2.17;1.98;;;;;;;22.49;27.70;101256.13;5033326;28;20471;-83
2023/10/08 07:10:13;;;;;;;1.58;1.48;;;;;;;22.56;27.79;101253.31;5028455;28;20398;-82
2023/10/08 07:12:39;;;;;;;1.17;0.87;;;;;;;22.53;27.45;101246.53;5029126;28;20399;-82
2023/10/08 07:15:12;;;;;;;0.57;0.50;;;;;;;22.55;27.22;101262.50;5026924;28;20757;-81
2023/10/08 07:17:40;;;;;;;1.13;0.85;;;;;;;22.44;27.39;101247.94;5029925;28;20386;-82
2023/10/08 07:20:21;;;;;;;1.60;0.90;;;;;;;22.53;27.37;101244.63;5043050;28;20651;-81
2023/10/08 07:22:53;;;;;;;0.90;0.65;;;;;;;22.56;27.50;101242.53;5031977;28;20413;-81
2023/10/08 07:25:23;;;;;;;1.10;0.73;;;;;;;22.73;27.78;101234.50;5026063;28;20469;-80
2023/10/08 07:27:48;;;;;;;1.10;0.80;;;;;;;22.80;27.92;101246.00;5037339;28;20391;-81
2023/10/08 07:30:26;;;;;;;0.53;0.40;;;;;;;22.80;27.90;101246.00;5031121;28;20409;-80
2023/10/08 07:32:58;;;;;;;0.40;0.38;;;;;;;22.86;27.96;101240.47;5045908;28;20397;-82
2023/10/08 07:35:29;;;;;;;1.95;1.60;;;;;;;22.91;28.20;101229.75;5044957;28;20389;-81
2023/10/08 07:37:58;;;;;;;0.63;0.57;;;;;;;22.99;28.57;101241.25;5046938;28;20472;-81
2023/10/08 07:40:29;;;;;;;1.33;0.80;;;;;;;22.96;27.59;101234.44;5048106;28;20412;-81
2023/10/08 07:42:56;;;;;;;0.47;0.38;;;;;;;23.15;28.17;101243.22;5047024;28;20396;-82
2023/10/08 07:45:22;;;;;;;0.60;0.20;;;;;;;23.22;27.54;101243.09;5046384;28;20407;-82
2023/10/08 07:47:50;;;;;;;0.82;0.63;;;;;;;23.28;26.74;101245.66;5046764;28;20404;-80
2023/10/08 07:50:19;;;;;;;0.50;0.47;;;;;;;23.38;27.12;101233.38;5047763;28;20805;-80
2023/10/08 07:52:47;;;;;;;0.93;0.73;;;;;;;23.42;26.64;101226.41;5046650;28;20388;-79
2023/10/08 07:55:17;;;;;;;0.95;0.65;;;;;;;23.56;26.61;101216.09;5044775;28;20783;-79
2023/10/08 07:57:44;;;;;;;0.70;0.50;;;;;;;23.69;26.45;101209.53;5046429;28;20795;-80
2023/10/08 08:00:25;;;;;;;0.32;0.30;;;;;;;23.79;26.13;101202.41;5043930;28;20416;-82
2023/10/08 08:02:54;;;;;;;1.60;0.75;;;;;;;24.08;26.75;101209.66;5034340;28;20908;-85
2023/10/08 08:05:27;;;;;;;0.55;0.40;;;;;;;24.02;27.35;101200.59;5039883;28;20452;-83
2023/10/08 08:11:36;;;;;;;0.68;0.50;;;;;;;24.13;27.19;101190.75;5048917;28;20434;-83
2023/10/08 08:14:07;;;;;;;0.98;0.77;;;;;;;24.11;26.74;101184.75;5030174;28;20392;-82
2023/10/08 08:16:36;;;;;;;0.80;0.60;;;;;;;24.21;26.36;101179.50;5048942;28;20397;-85
2023/10/08 08:19:07;;;;;;;1.00;0.90;;;;;;;24.21;26.58;101172.19;5031257;28;20915;-88
2023/10/08 08:21:35;;;;;;;9.05;6.80;;;;;;;24.24;27.01;101154.63;5017467;28;20401;-84
2023/10/08 08:24:35;;;;;;;1.25;1.00;;;;;;;24.32;26.47;101142.53;5015315;28;20458;-86
2023/10/08 08:27:11;;;;;;;0.80;0.80;;;;;;;24.33;26.30;101142.28;5032127;28;20448;-80
2023/10/08 08:29:44;;;;;;;1.05;0.73;;;;;;;24.34;26.04;101124.94;5045604;28;20803;-88
2023/10/08 08:32:15;;;;;;;0.40;0.37;;;;;;;24.40;26.09;101118.53;5015649;28;20400;-81
2023/10/08 08:34:52;;;;;;;0.65;0.65;;;;;;;24.70;26.34;101121.84;5048152;28;20377;-86
2023/10/08 08:37:25;;;;;;;1.80;1.30;;;;;;;24.72;25.92;101112.41;5032891;28;20394;-85
2023/10/08 08:40:17;;;;;;;0.73;0.52;;;;;;;24.82;25.78;101098.13;5031007;28;20415;-88
2023/10/08 08:42:47;;;;;;;0.60;0.60;;;;;;;24.81;25.73;101096.47;5021159;28;20392;-84
2023/10/08 08:45:40;;;;;;;1.00;0.50;;;;;;;24.93;25.64;101108.00;5049432;28;20474;-86
2023/10/08 08:48:08;;;;;;;0.57;0.50;;;;;;;24.92;25.51;101116.38;5048657;28;20485;-79
2023/10/08 08:50:38;;;;;;;0.60;0.40;;;;;;;25.00;25.59;101105.09;5059275;28;20580;-82
2023/10/08 08:53:23;;;;;;;1.15;0.80;;;;;;;25.10;25.64;101117.91;5050022;28;20404;-80
2023/10/08 08:55:53;;;;;;;0.50;0.47;;;;;;;25.08;25.15;101117.34;5032762;28;20423;-83
2023/10/08 08:58:25;;;;;;;0.47;0.40;;;;;;;25.24;25.53;101102.03;5049334;28;20399;-84
2023/10/08 09:01:12;;;;;;;0.30;0.30;;;;;;;25.21;25.67;101103.38;5051468;28;20448;-87
2023/10/08 09:03:42;;;;;;;0.38;0.30;;;;;;;25.15;25.51;101110.63;5033321;28;20963;-86
2023/10/08 09:06:13;;;;;;;0.50;0.40;;;;;;;25.12;25.35;101108.44;5034403;28;20393;-89
2023/10/08 09:08:48;;;;;;;0.30;0.20;;;;;;;25.32;25.58;101110.56;5050430;28;20465;-83
2023/10/08 09:11:17;;;;;;;0.88;0.60;;;;;;;25.24;25.54;101102.88;5049649;28;20392;-80
2023/10/08 09:13:49;;;;;;;0.50;0.50;;;;;;;25.49;25.77;101096.81;5033660;28;20421;-82
2023/10/08 09:16:34;;;;;;;0.88;0.60;;;;;;;25.49;25.51;101087.88;5045988;28;20771;-84
2023/10/08 09:19:02;;;;;;;0.40;0.30;;;;;;;25.68;25.54;101099.94;5031757;28;20408;-85
2023/10/08 09:21:30;;;;;;;0.47;0.43;;;;;;;25.66;25.31;101095.84;5028712;28;20480;-84
2023/10/08 09:23:56;;;;;;;0.60;0.50;;;;;;;25.79;25.37;101092.69;5011176;28;20424;-82
2023/10/08 09:26:26;;;;;;;0.52;0.52;;;;;;;25.76;25.15;101091.28;5026394;28;20387;-82
2023/10/08 09:28:53;;;;;;;0.43;0.40;;;;;;;25.80;25.51;101088.88;5011406;28;20433;-82
2023/10/08 09:31:23;;;;;;;0.60;0.50;;;;;;;26.00;25.51;101103.69;5025053;28;20750;-81
2023/10/08 09:33:56;;;;;;;0.47;0.40;;;;;;;25.73;25.07;101100.00;5010458;28;20398;-82
2023/10/08 09:36:31;;;;;;;0.40;0.32;;;;;;;26.01;25.43;101087.13;4993724;28;20398;-82
2023/10/08 09:39:04;;;;;;;0.40;0.40;;;;;;;26.03;25.27;101100.44;5012995;28;20401;-82
2023/10/08 09:41:32;;;;;;;0.55;0.55;;;;;;;26.03;25.34;101095.81;5028748;28;20507;-83
2023/10/08 09:44:00;;;;;;;0.50;0.40;;;;;;;26.03;24.91;101097.72;5013856;28;20850;-82
2023/10/08 09:46:35;;;;;;;0.95;0.55;;;;;;;25.88;24.90;101091.09;5008950;28;20945;-82
2023/10/08 09:49:07;;;;;;;0.43;0.43;;;;;;;26.11;25.08;101087.19;5008856;28;20472;-82
2023/10/08 09:51:38;;;;;;;1.10;0.73;;;;;;;26.05;24.83;101087.41;5008601;28;20396;-82
2023/10/08 09:54:25;;;;;;;0.50;0.50;;;;;;;26.13;24.90;101086.91;4993289;28;20847;-82
2023/10/08 09:56:53;;;;;;;0.35;0.30;;;;;;;26.26;24.62;101096.47;5009742;28;20483;-82
2023/10/08 09:59:25;;;;;;;0.40;0.30;;;;;;;26.22;24.70;101087.22;5008501;28;20388;-81
2023/10/08 10:01:54;;;;;;;0.50;0.40;;;;;;;26.36;24.71;101085.63;5009327;28;20380;-83
2023/10/08 10:04:31;;;;;;;0.73;0.70;;;;;;;26.29;24.82;101072.31;5010591;28;20411;-82
2023/10/08 10:07:00;;;;;;;0.30;0.30;;;;;;;26.55;25.09;101082.44;5009055;28;20427;-82
2023/10/08 10:09:26;;;;;;;0.30;0.30;;;;;;;26.60;24.90;101072.38;4993167;28;20400;-82
2023/10/08 10:11:54;;;;;;;0.35;0.30;;;;;;;26.44;24.63;101078.88;5019725;28;20476;-83
2023/10/08 10:14:26;;;;;;;0.45;0.38;;;;;;;26.57;24.82;101062.03;5046427;28;20385;-83
2023/10/08 10:17:25;;;;;;;0.43;0.40;;;;;;;26.57;24.37;101062.03;5030741;28;20390;-81
2023/10/08 10:20:01;;;;;;;0.30;0.30;;;;;;;26.51;24.80;101065.84;5029200;28;20519;-82
2023/10/08 10:22:37;;;;;;;0.60;0.60;;;;;;;26.65;24.86;101056.09;5046780;28;20425;-82
2023/10/08 10:25:14;;;;;;;0.70;0.60;;;;;;;26.79;24.72;101045.50;5031561;28;20753;-81
2023/10/08 10:27:42;;;;;;;0.68;0.50;;;;;;;26.99;24.42;101050.16;5048884;28;20380;-82
2023/10/08 10:30:18;;;;;;;0.85;0.60;;;;;;;27.10;24.06;101050.97;5031474;28;20543;-83
2023/10/08 10:32:46;;;;;;;0.47;0.40;;;;;;;27.20;24.02;101039.25;5048074;28;20459;-82
2023/10/08 10:35:20;;;;;;;0.47;0.40;;;;;;;27.40;23.94;101041.97;5047363;28;20519;-83
2023/10/08 10:37:52;;;;;;;0.90;0.70;;;;;;;27.46;23.62;101031.91;5031145;28;20415;-82
2023/10/08 10:41:22;;;;;;;1.10;0.60;;;;;;;27.44;23.39;101025.91;5031184;28;20478;-82
2023/10/08 10:43:20;;;;;;;0.83;0.43;;;;;;;27.36;23.16;101007.41;5030396;28;20435;-81
2023/10/08 10:45:47;;;;;;;1.40;1.30;;;;;;;27.30;23.14;101028.38;5047540;28;20388;-81
2023/10/08 10:53:44;;;;;;;0.50;0.47;;;;;;;27.71;22.58;101008.41;5047418;28;20401;-83
2023/10/08 10:56:18;;;;;;;0.50;0.38;;;;;;;27.77;23.16;100999.13;5046869;28;20408;-83
2023/10/08 10:58:48;;;;;;;0.40;0.40;;;;;;;27.78;22.91;100995.28;5030572;28;20842;-81
2023/10/08 11:01:23;;;;;;;0.47;0.30;;;;;;;27.81;23.07;100983.84;5047465;28;20405;-81
2023/10/08 11:03:53;;;;;;;0.60;0.60;;;;;;;27.83;23.10;100984.38;5048112;28;20392;-83
2023/10/08 11:06:23;;;;;;;0.47;0.47;;;;;;;27.92;23.35;100988.19;5047139;28;20443;-82
2023/10/08 11:08:56;;;;;;;0.50;0.30;;;;;;;27.83;22.96;100968.84;5027850;28;20395;-81
2023/10/08 11:11:28;;;;;;;0.77;0.53;;;;;;;27.82;22.90;100961.78;5011853;28;20490;-83
2023/10/08 11:14:03;;;;;;;0.43;0.40;;;;;;;27.98;23.22;100973.44;5028018;28;20471;-81
2023/10/08 11:16:31;;;;;;;1.42;1.10;;;;;;;28.00;22.93;100959.50;5028893;28;20394;-82
2023/10/08 11:19:06;;;;;;;1.20;1.10;;;;;;;28.16;23.01;100966.53;5028095;28;20394;-83
2023/10/08 11:21:53;;;;;;;1.10;0.50;;;;;;;28.28;23.13;100958.00;5028794;28;20429;-83
2023/10/08 11:24:33;;;;;;;1.02;0.95;;;;;;;28.34;22.63;100943.25;5045028;28;20382;-84
2023/10/08 11:27:15;;;;;;;0.60;0.53;;;;;;;28.19;22.76;100941.41;5045234;28;20451;-82
2023/10/08 11:29:46;;;;;;;0.80;0.60;;;;;;;28.27;22.77;100953.66;5028103;28;20433;-82
2023/10/08 11:32:25;;;;;;;0.82;0.68;;;;;;;28.35;22.71;100931.22;5027146;28;20414;-82
2023/10/08 11:35:15;;;;;;;0.75;0.50;;;;;;;28.14;22.43;100938.72;5026973;28;20382;-81
2023/10/08 11:37:45;;;;;;;0.93;0.60;;;;;;;28.02;22.68;100941.81;5026772;28;20777;-83
2023/10/08 11:40:28;;;;;;;2.58;1.48;;;;;;;27.76;22.48;100927.47;5026907;28;20755;-82
2023/10/08 11:42:59;;;;;;;1.05;0.95;;;;;;;27.81;22.90;100924.72;5043320;28;20382;-82
2023/10/08 11:45:28;;;;;;;1.30;0.70;;;;;;;27.87;22.98;100932.88;5044930;28;20391;-85
2023/10/08 11:47:57;;;;;;;0.47;0.30;;;;;;;27.99;22.76;100933.38;5030800;28;20400;-82
2023/10/08 11:50:30;;;;;;;0.47;0.40;;;;;;;28.12;22.62;100934.66;5033225;28;20893;-81
2023/10/08 11:53:01;;;;;;;0.47;0.40;;;;;;;28.02;22.47;100925.47;5031944;28;20385;-82
2023/10/08 11:55:28;;;;;;;1.20;1.17;;;;;;;27.96;22.43;100926.56;5033245;28;20968;-83
2023/10/08 11:57:57;;;;;;;0.77;0.77;;;;;;;27.94;22.62;100920.59;5031885;28;20394;-82
2023/10/08 12:00:25;;;;;;;1.40;0.70;;;;;;;28.02;22.70;100925.47;5032991;28;20460;-82
2023/10/08 12:02:55;;;;;;;0.60;0.40;;;;;;;27.97;22.82;100903.69;5033625;28;20393;-82
2023/10/08 12:05:24;;;;;;;0.57;0.40;;;;;;;27.89;22.55;100919.78;5033746;28;20462;-82
2023/10/08 12:07:52;;;;;;;0.85;0.40;;;;;;;27.85;22.73;100905.91;5014383;28;20405;-82
2023/10/08 12:10:23;;;;;;;0.33;0.30;;;;;;;28.12;22.77;100908.22;5031793;28;20877;-82
2023/10/08 12:12:59;;;;;;;0.43;0.30;;;;;;;28.25;22.58;100914.94;5032789;28;20378;-85
2023/10/08 12:15:38;;;;;;;0.30;0.28;;;;;;;28.10;22.41;100904.97;5033701;28;20390;-82
2023/10/08 12:18:08;;;;;;;0.43;0.30;;;;;;;27.88;22.52;100902.63;5046563;28;20399;-83
2023/10/08 12:20:37;;;;;;;1.10;0.80;;;;;;;28.22;22.20;100907.34;5052620;28;20413;-84
2023/10/08 12:23:04;;;;;;;0.88;0.43;;;;;;;28.21;22.41;100901.06;5068664;28;20760;-83
2023/10/08 12:25:35;;;;;;;0.50;0.40;;;;;;;28.29;22.25;100907.84;5052941;28;20729;-82
2023/10/08 12:28:04;;;;;;;0.50;0.40;;;;;;;28.37;22.04;100909.13;5069317;28;20388;-82
2023/10/08 12:30:32;;;;;;;0.77;0.77;;;;;;;28.39;22.14;100907.72;5068500;28;20469;-83
2023/10/08 12:32:59;;;;;;;0.40;0.40;;;;;;;28.29;21.91;100902.38;5051857;28;20404;-82
2023/10/08 12:35:26;;;;;;;0.38;0.30;;;;;;;28.38;22.00;100892.50;5018881;28;20814;-82
2023/10/08 12:37:57;;;;;;;2.27;1.17;;;;;;;28.40;22.01;100893.00;5035004;28;20454;-82
2023/10/08 12:40:41;;;;;;;0.30;0.30;;;;;;;28.45;22.07;100883.16;5053562;28;20434;-82
2023/10/08 12:43:08;;;;;;;1.02;0.68;;;;;;;28.39;22.11;100906.94;5067914;28;20393;-83
2023/10/08 12:45:36;;;;;;;0.80;0.60;;;;;;;28.36;22.18;100907.50;5052885;28;20399;-83
2023/10/08 12:48:02;;;;;;;0.52;0.40;;;;;;;28.50;21.89;100897.56;5054149;28;20453;-81
2023/10/08 12:50:42;;;;;;;0.80;0.80;;;;;;;28.56;21.92;100915.56;5056142;28;20495;-82
2023/10/08 12:53:11;;;;;;;1.43;0.70;;;;;;;28.18;22.02;100934.34;5056080;28;20389;-83
2023/10/08 12:55:40;;;;;;;0.60;0.40;;;;;;;28.28;22.08;100916.28;5054970;28;20456;-82
2023/10/08 12:58:10;;;;;;;1.30;0.90;;;;;;;28.16;22.36;100922.09;5052294;28;20806;-82
2023/10/08 13:00:49;;;;;;;0.98;0.52;;;;;;;28.10;22.49;100921.31;5050955;28;20411;-81